createdAt,value
2022-08-05T00:03:34.104Z,53.91
2022-08-05T00:06:05.196Z,53.06
2022-08-05T00:08:48.383Z,53.13
2022-08-05T00:11:23.855Z,52.94
2022-08-05T00:13:58.093Z,51.95
2022-08-05T00:16:35.557Z,52.48
2022-08-05T00:19:05.016Z,52.29
2022-08-05T00:21:35.922Z,51.99
2022-08-05T00:24:09.917Z,51.94
2022-08-05T00:26:38.875Z,52.08
2022-08-05T00:29:13.684Z,51.86
2022-08-05T00:31:54.065Z,52.15
2022-08-05T00:34:53.694Z,52.69
2022-08-05T00:37:14.643Z,52.50
2022-08-05T00:39:58.340Z,53.04
2022-08-05T00:42:34.039Z,52.91
2022-08-05T00:45:01.428Z,52.74
2022-08-05T00:47:31.785Z,53.28
2022-08-05T00:50:15.719Z,53.96
2022-08-05T00:52:45.554Z,53.94
2022-08-05T00:55:14.001Z,53.01
2022-08-05T00:57:57.933Z,53.34
2022-08-05T01:00:28.491Z,53.56
2022-08-05T01:02:57.325Z,52.97
2022-08-05T01:05:27.501Z,52.99
2022-08-05T01:08:40.762Z,53.13
2022-08-05T01:10:52.894Z,54.09
2022-08-05T01:13:59.119Z,54.44
2022-08-05T01:16:52.844Z,53.85
2022-08-05T01:19:46.129Z,54.80
2022-08-05T01:22:31.814Z,54.73
2022-08-05T01:25:39.656Z,54.45
2022-08-05T01:28:17.694Z,54.68
2022-08-05T01:30:56.443Z,54.51
2022-08-05T01:33:35.183Z,53.86
2022-08-05T01:36:13.008Z,54.18
2022-08-05T01:38:44.903Z,54.17
2022-08-05T01:41:15.296Z,54.60
2022-08-05T01:43:46.990Z,55.24
2022-08-05T01:46:41.570Z,55.50
2022-08-05T01:49:23.054Z,55.75
2022-08-05T01:52:01.660Z,56.79
2022-08-05T01:54:52.990Z,56.83
2022-08-05T01:58:10.383Z,56.57
2022-08-05T02:00:13.731Z,56.35
2022-08-05T02:02:53.661Z,57.45
2022-08-05T02:05:28.873Z,55.90
2022-08-05T02:08:00.974Z,54.26
2022-08-05T02:10:36.994Z,54.92
2022-08-05T02:13:16.259Z,54.51
2022-08-05T02:16:01.672Z,55.08
2022-08-05T02:18:48.468Z,55.09
2022-08-05T02:21:22.855Z,54.98
2022-08-05T02:23:57.009Z,55.93
2022-08-05T02:26:28.188Z,56.18
2022-08-05T02:28:58.168Z,55.96
2022-08-05T02:31:34.888Z,56.68
2022-08-05T02:34:12.144Z,56.74
2022-08-05T02:36:45.860Z,56.72
2022-08-05T02:39:17.527Z,56.55
2022-08-05T02:42:00.532Z,56.43
2022-08-05T02:44:31.996Z,56.82
2022-08-05T02:47:01.193Z,56.66
2022-08-05T02:49:48.542Z,57.14
2022-08-05T02:52:29.887Z,55.89
2022-08-05T02:55:01.725Z,56.20
2022-08-05T02:58:11.187Z,55.93
2022-08-05T03:00:19.922Z,56.71
2022-08-05T03:02:48.952Z,55.85
2022-08-05T03:05:16.413Z,55.79
2022-08-05T03:08:06.868Z,55.88
2022-08-05T03:10:31.743Z,55.87
2022-08-05T03:15:27.500Z,55.85
2022-08-05T03:17:57.654Z,56.18
2022-08-05T03:20:25.179Z,56.36
2022-08-05T03:22:57.055Z,56.64
2022-08-05T03:25:33.207Z,55.69
2022-08-05T03:28:14.127Z,56.03
2022-08-05T03:30:53.963Z,56.57
2022-08-05T03:33:22.785Z,56.36
2022-08-05T03:35:59.892Z,56.71
2022-08-05T03:38:33.167Z,56.64
2022-08-05T03:41:08.469Z,56.16
2022-08-05T03:44:08.401Z,55.84
2022-08-05T03:46:26.681Z,55.63
2022-08-05T03:48:57.099Z,55.33
2022-08-05T03:52:38.455Z,55.05
2022-08-05T03:56:06.286Z,54.81
2022-08-05T03:57:46.233Z,54.42
2022-08-05T04:00:16.458Z,54.49
2022-08-05T04:02:57.832Z,54.37
2022-08-05T04:05:34.012Z,53.43
2022-08-05T04:08:14.510Z,54.06
2022-08-05T04:11:02.045Z,54.23
2022-08-05T04:13:50.890Z,54.27
2022-08-05T04:16:24.070Z,54.38
2022-08-05T04:18:54.174Z,54.07
2022-08-05T04:22:08.235Z,53.44
2022-08-05T04:24:09.025Z,53.20
2022-08-05T04:26:46.338Z,52.91
2022-08-05T04:29:14.381Z,52.49
2022-08-05T04:31:41.523Z,51.48
2022-08-05T04:34:31.870Z,50.88
2022-08-05T04:36:56.736Z,50.85
2022-08-05T04:39:23.775Z,50.32
2022-08-05T04:41:51.388Z,49.96
2022-08-05T04:44:21.265Z,49.57
2022-08-05T04:46:56.862Z,50.08
2022-08-05T04:49:38.377Z,49.87
2022-08-05T04:52:07.752Z,49.74
2022-08-05T04:54:34.810Z,47.87
2022-08-05T04:57:01.731Z,47.67
2022-08-05T04:59:38.450Z,46.97
2022-08-05T05:02:36.766Z,46.57
2022-08-05T05:05:03.044Z,46.58
2022-08-05T05:07:32.243Z,46.03
2022-08-05T05:10:02.028Z,45.50
2022-08-05T05:12:30.111Z,45.34
2022-08-05T05:14:56.992Z,45.35
2022-08-05T05:17:56.230Z,45.23
2022-08-05T05:20:12.862Z,44.61
2022-08-05T05:22:40.721Z,44.08
2022-08-05T05:25:16.966Z,43.83
2022-08-05T05:27:53.452Z,43.00
2022-08-05T05:30:31.496Z,42.67
2022-08-05T05:33:03.802Z,42.53
2022-08-05T05:35:45.525Z,42.17
2022-08-05T05:38:14.104Z,42.73
2022-08-05T05:40:49.588Z,40.87
2022-08-05T05:43:22.255Z,39.66
2022-08-05T05:46:10.626Z,39.00
2022-08-05T05:48:42.017Z,38.36
2022-08-05T05:51:15.570Z,37.08
2022-08-05T05:53:46.104Z,37.15
2022-08-05T05:56:31.588Z,37.05
2022-08-05T05:59:06.827Z,35.60
2022-08-05T06:01:38.456Z,36.19
2022-08-05T06:04:11.862Z,35.90
2022-08-05T06:06:47.485Z,35.20
2022-08-05T06:09:25.420Z,35.08
2022-08-05T06:12:03.757Z,35.06
2022-08-05T06:14:31.471Z,35.30
2022-08-05T06:16:59.326Z,34.51
2022-08-05T06:19:34.478Z,32.78
2022-08-05T06:22:07.593Z,32.75
2022-08-05T06:24:36.873Z,32.91
2022-08-05T06:27:04.722Z,32.43
2022-08-05T06:29:49.427Z,32.69
2022-08-05T06:32:25.879Z,31.49
2022-08-05T06:34:56.185Z,31.15
2022-08-05T06:37:58.382Z,30.23
2022-08-05T06:40:18.111Z,30.49
2022-08-05T06:42:52.029Z,30.38
2022-08-05T06:45:45.055Z,29.26
2022-08-05T06:48:36.386Z,28.69
2022-08-05T06:50:57.457Z,28.14
2022-08-05T06:53:28.600Z,27.70
2022-08-05T06:56:00.438Z,27.57
2022-08-05T06:58:35.266Z,28.79
2022-08-05T07:01:06.305Z,28.04
2022-08-05T07:03:34.755Z,28.47
2022-08-05T07:06:06.234Z,27.97
2022-08-05T07:08:47.958Z,26.77
2022-08-05T07:11:22.503Z,27.33
2022-08-05T07:14:20.116Z,26.42
2022-08-05T07:18:02.125Z,28.16
2022-08-05T07:22:35.312Z,27.26
2022-08-05T07:25:22.634Z,27.00
2022-08-05T07:27:58.558Z,27.53
2022-08-05T07:30:38.285Z,27.24
2022-08-05T07:33:16.509Z,27.15
2022-08-05T07:36:04.783Z,26.59
2022-08-05T07:38:34.790Z,26.57
2022-08-05T07:42:07.355Z,26.49
2022-08-05T07:44:00.320Z,27.46
2022-08-05T07:46:30.674Z,27.06
2022-08-05T07:49:04.380Z,26.79
2022-08-05T07:51:40.601Z,27.42
2022-08-05T07:54:18.605Z,25.63
2022-08-05T07:57:13.886Z,25.97
2022-08-05T07:59:40.563Z,25.03
2022-08-05T08:02:15.789Z,25.21
2022-08-05T08:04:45.325Z,24.57
2022-08-05T08:07:13.537Z,23.89
2022-08-05T08:09:40.999Z,24.84
2022-08-05T08:12:35.486Z,24.82
2022-08-05T08:14:55.213Z,24.66
2022-08-05T08:17:22.787Z,23.51
2022-08-05T08:20:44.198Z,23.82
2022-08-05T08:22:37.931Z,24.00
2022-08-05T08:25:16.120Z,22.98
2022-08-05T08:27:47.412Z,22.04
2022-08-05T08:30:30.212Z,22.42
2022-08-05T08:33:04.345Z,22.35
2022-08-05T08:35:35.075Z,22.43
2022-08-05T08:38:11.745Z,22.04
2022-08-05T08:40:50.457Z,22.03
2022-08-05T08:45:16.364Z,21.58
2022-08-05T08:46:10.081Z,20.63
2022-08-05T08:49:06.267Z,20.69
2022-08-05T08:52:04.274Z,21.13
2022-08-05T08:54:27.429Z,20.66
2022-08-05T08:56:56.393Z,20.94
2022-08-05T08:59:27.742Z,20.77
2022-08-05T09:02:02.325Z,20.45
2022-08-05T09:04:30.681Z,21.19
2022-08-05T09:06:58.511Z,20.49
2022-08-05T09:09:34.736Z,20.52
2022-08-05T09:12:19.849Z,19.93
2022-08-05T09:14:58.822Z,19.62
2022-08-05T09:17:42.733Z,20.10
2022-08-05T09:20:36.655Z,20.71
2022-08-05T09:23:09.211Z,20.19
2022-08-05T09:26:01.239Z,20.22
2022-08-05T09:28:31.458Z,19.84
2022-08-05T09:31:43.881Z,19.30
2022-08-05T09:33:59.937Z,19.34
2022-08-05T09:36:55.602Z,18.51
2022-08-05T09:39:39.275Z,19.22
2022-08-05T09:42:22.986Z,19.15
2022-08-05T09:44:56.453Z,19.16
2022-08-05T09:47:34.948Z,18.51
2022-08-05T09:50:18.065Z,19.15
2022-08-05T09:53:01.226Z,18.60
2022-08-05T09:55:57.214Z,18.45
2022-08-05T09:58:15.972Z,18.98
2022-08-05T10:01:13.546Z,18.26
2022-08-05T10:04:10.565Z,18.20
2022-08-05T10:06:40.766Z,20.23
2022-08-05T10:09:27.650Z,18.92
2022-08-05T10:12:29.967Z,17.86
2022-08-05T10:15:17.068Z,17.62
2022-08-05T10:18:02.610Z,18.20
2022-08-05T10:20:32.372Z,18.20
2022-08-05T10:23:01.506Z,17.52
2022-08-05T10:25:28.913Z,16.70
2022-08-05T10:28:13.527Z,17.23
2022-08-05T10:32:54.429Z,16.96
2022-08-05T10:33:35.283Z,17.82
2022-08-05T10:36:05.923Z,17.97
2022-08-05T10:38:37.035Z,17.75
2022-08-05T10:41:46.688Z,17.78
2022-08-05T10:44:18.498Z,18.53
2022-08-05T10:46:58.201Z,18.33
2022-08-05T10:49:33.248Z,18.12
2022-08-05T10:52:05.138Z,18.41
2022-08-05T10:55:15.958Z,18.21
2022-08-05T10:57:46.578Z,18.90
2022-08-05T11:00:24.455Z,18.73
2022-08-05T11:03:24.317Z,17.11
2022-08-05T11:06:14.968Z,17.87
2022-08-05T11:09:16.714Z,18.64
2022-08-05T11:11:52.911Z,19.15
2022-08-05T11:14:57.350Z,18.48
2022-08-05T11:17:57.101Z,17.99
2022-08-05T11:20:43.820Z,18.71
2022-08-05T11:23:26.274Z,19.31
2022-08-05T11:26:32.123Z,19.79
2022-08-05T11:29:11.573Z,18.74
2022-08-05T11:31:58.705Z,19.54
2022-08-05T11:34:38.071Z,19.91
2022-08-05T11:38:14.334Z,20.00
2022-08-05T11:39:55.259Z,19.93
2022-08-05T11:42:28.633Z,20.10
2022-08-05T11:46:15.974Z,21.41
2022-08-05T11:48:14.746Z,19.61
2022-08-05T11:50:44.772Z,19.66
2022-08-05T11:53:13.169Z,21.06
2022-08-05T11:55:57.565Z,19.83
2022-08-05T11:58:41.550Z,19.59
2022-08-05T12:01:22.861Z,19.79
2022-08-05T12:03:56.633Z,19.63
2022-08-05T12:06:26.358Z,19.59
2022-08-05T12:08:55.554Z,19.89
2022-08-05T12:11:28.127Z,19.41
2022-08-05T12:14:11.267Z,19.59
2022-08-05T12:16:40.996Z,19.43
2022-08-05T12:20:25.281Z,19.22
2022-08-05T12:22:09.509Z,18.78
2022-08-05T12:24:43.641Z,19.66
2022-08-05T12:27:25.309Z,19.66
2022-08-05T12:30:07.992Z,19.25
2022-08-05T12:32:43.653Z,19.24
2022-08-05T12:35:21.917Z,19.90
2022-08-05T12:37:49.691Z,19.98
2022-08-05T12:40:26.859Z,19.69
2022-08-05T12:42:56.332Z,19.40
2022-08-05T12:45:23.493Z,19.85
2022-08-05T12:48:27.716Z,19.33
2022-08-05T12:52:10.606Z,19.15
2022-08-05T12:54:16.538Z,19.81
2022-08-05T12:56:48.552Z,19.33
2022-08-05T12:59:27.546Z,19.39
2022-08-05T13:02:12.464Z,19.96
2022-08-05T13:04:54.471Z,19.50
2022-08-05T13:07:55.889Z,19.21
2022-08-05T13:10:12.443Z,19.59
2022-08-05T13:12:57.193Z,19.80
2022-08-05T13:15:35.966Z,19.80
2022-08-05T13:18:08.913Z,19.86
2022-08-05T13:20:40.515Z,19.60
2022-08-05T13:23:07.816Z,19.54
2022-08-05T13:25:52.791Z,19.31
2022-08-05T13:28:22.603Z,19.20
2022-08-05T13:30:51.170Z,19.84
2022-08-05T13:34:23.040Z,19.19
2022-08-05T13:36:07.063Z,18.97
2022-08-05T13:38:38.389Z,18.93
2022-08-05T13:41:13.827Z,18.48
2022-08-05T13:43:54.693Z,18.82
2022-08-05T13:46:43.863Z,19.11
2022-08-05T13:49:11.776Z,18.99
2022-08-05T13:51:46.481Z,19.37
2022-08-05T13:54:15.948Z,19.13
2022-08-05T13:56:51.556Z,18.81
2022-08-05T13:59:24.483Z,19.04
2022-08-05T14:01:58.811Z,19.77
2022-08-05T14:05:00.545Z,18.66
2022-08-05T14:07:59.498Z,18.87
2022-08-05T14:10:32.904Z,18.72
2022-08-05T14:13:00.009Z,18.88
2022-08-05T14:16:05.754Z,19.20
2022-08-05T14:18:23.393Z,19.18
2022-08-05T14:20:54.389Z,19.26
2022-08-05T14:23:25.680Z,19.02
2022-08-05T14:25:59.591Z,18.96
2022-08-05T14:28:30.413Z,19.11
2022-08-05T14:30:59.036Z,19.76
2022-08-05T14:33:26.394Z,19.51
2022-08-05T14:35:54.212Z,19.56
2022-08-05T14:38:33.333Z,19.93
2022-08-05T14:41:07.688Z,20.37
2022-08-05T14:44:00.122Z,20.15
2022-08-05T14:46:28.395Z,19.95
2022-08-05T14:48:57.103Z,20.56
2022-08-05T14:51:24.161Z,20.06
2022-08-05T14:54:26.391Z,20.71
2022-08-05T14:56:44.327Z,20.68
2022-08-05T14:59:14.584Z,20.27
2022-08-05T15:01:48.683Z,20.43
2022-08-05T15:04:22.185Z,19.99
2022-08-05T15:06:52.861Z,20.25
2022-08-05T15:09:51.374Z,20.01
2022-08-05T15:12:16.450Z,20.15
2022-08-05T15:14:49.976Z,20.67
2022-08-05T15:17:46.191Z,20.49
2022-08-05T15:20:17.216Z,20.36
2022-08-05T15:22:54.215Z,20.93
2022-08-05T15:25:51.133Z,20.53
2022-08-05T15:28:16.063Z,20.83
2022-08-05T15:30:47.667Z,20.70
2022-08-05T15:34:04.060Z,20.23
2022-08-05T15:36:17.605Z,20.46
2022-08-05T15:41:01.464Z,20.40
2022-08-05T15:41:58.206Z,20.37
2022-08-05T15:44:28.333Z,20.12
2022-08-05T15:46:58.052Z,20.58
2022-08-05T15:49:48.216Z,21.03
2022-08-05T15:52:16.429Z,20.76
2022-08-05T15:54:44.074Z,20.95
2022-08-05T15:57:12.908Z,21.31
2022-08-05T15:59:40.517Z,20.95
2022-08-05T16:02:09.543Z,21.41
2022-08-05T16:04:42.744Z,21.33
2022-08-05T16:07:11.005Z,21.41
2022-08-05T16:09:38.123Z,20.82
2022-08-05T16:12:09.884Z,20.66
2022-08-05T16:14:38.560Z,20.40
2022-08-05T16:17:06.070Z,20.78
2022-08-05T16:20:05.747Z,21.12
2022-08-05T16:22:27.345Z,20.82
2022-08-05T16:24:55.153Z,20.88
2022-08-05T16:27:47.342Z,21.15
2022-08-05T16:30:25.523Z,21.24
2022-08-05T16:32:54.094Z,21.62
2022-08-05T16:35:27.614Z,21.47
2022-08-05T16:38:03.173Z,21.31
2022-08-05T16:40:48.093Z,21.37
2022-08-05T16:43:19.846Z,21.65
2022-08-05T16:46:04.851Z,21.46
2022-08-05T16:48:35.234Z,21.87
2022-08-05T16:51:03.820Z,21.96
2022-08-05T16:54:02.428Z,22.18
2022-08-05T16:56:23.440Z,22.05
2022-08-05T16:58:50.634Z,22.40
2022-08-05T17:01:18.755Z,22.38
2022-08-05T17:03:46.246Z,22.53
2022-08-05T17:06:16.427Z,23.11
2022-08-05T17:08:52.913Z,22.80
2022-08-05T17:11:23.387Z,22.67
2022-08-05T17:13:51.123Z,22.75
2022-08-05T17:16:32.548Z,22.89
2022-08-05T17:19:02.858Z,22.99
2022-08-05T17:21:35.579Z,23.39
2022-08-05T17:24:18.362Z,23.68
2022-08-05T17:26:52.894Z,24.17
2022-08-05T17:29:22.300Z,24.82
2022-08-05T17:31:58.555Z,25.84
2022-08-05T17:34:30.100Z,28.00
2022-08-05T17:37:00.584Z,27.38
2022-08-05T17:39:33.920Z,28.13
2022-08-05T17:42:19.889Z,28.90
2022-08-05T17:44:50.321Z,29.61
2022-08-05T17:47:22.130Z,30.36
2022-08-05T17:50:03.586Z,31.71
2022-08-05T17:52:53.242Z,31.82
2022-08-05T17:55:27.264Z,32.93
2022-08-05T17:58:02.626Z,33.36
2022-08-05T18:00:30.321Z,32.99
2022-08-05T18:02:58.036Z,32.26
2022-08-05T18:05:35.679Z,32.06
2022-08-05T18:08:04.093Z,32.92
2022-08-05T18:10:32.188Z,34.55
2022-08-05T18:13:02.008Z,34.19
2022-08-05T18:15:35.247Z,33.74
2022-08-05T18:18:11.150Z,33.75
2022-08-05T18:20:39.118Z,34.02
2022-08-05T18:23:09.045Z,34.40
2022-08-05T18:25:45.060Z,34.72
2022-08-05T18:28:17.685Z,34.52
2022-08-05T18:30:50.861Z,34.85
2022-08-05T18:33:22.529Z,34.55
2022-08-05T18:36:03.571Z,34.78
2022-08-05T18:38:34.686Z,34.97
2022-08-05T18:41:55.147Z,34.66
2022-08-05T18:43:50.192Z,35.41
2022-08-05T18:46:19.741Z,35.36
2022-08-05T18:48:52.080Z,35.62
2022-08-05T18:52:06.257Z,36.30
2022-08-05T18:54:31.192Z,36.90
2022-08-05T18:57:02.314Z,37.06
2022-08-05T18:59:44.227Z,37.48
2022-08-05T19:02:27.917Z,38.30
2022-08-05T19:05:03.235Z,38.59
2022-08-05T19:07:48.060Z,38.86
2022-08-05T19:10:17.183Z,38.84
2022-08-05T19:12:46.044Z,38.89
2022-08-05T19:15:57.582Z,39.02
2022-08-05T19:18:09.327Z,39.27
2022-08-05T19:20:41.666Z,39.25
2022-08-05T19:24:03.861Z,39.17
2022-08-05T19:26:01.050Z,38.69
2022-08-05T19:28:29.117Z,38.60
2022-08-05T19:30:56.300Z,38.66
2022-08-05T19:33:35.186Z,38.59
2022-08-05T19:36:06.470Z,38.73
2022-08-05T19:38:35.876Z,38.71
2022-08-05T19:41:07.102Z,38.79
2022-08-05T19:44:06.192Z,38.71
2022-08-05T19:46:29.460Z,39.11
2022-08-05T19:49:03.439Z,39.64
2022-08-05T19:52:05.702Z,40.48
2022-08-05T19:54:29.518Z,40.00
2022-08-05T19:57:08.554Z,40.68
2022-08-05T19:59:59.428Z,40.38
2022-08-05T20:02:26.203Z,40.64
2022-08-05T20:04:55.555Z,40.72
2022-08-05T20:07:48.260Z,41.30
2022-08-05T20:10:14.751Z,41.29
2022-08-05T20:12:48.248Z,41.17
2022-08-05T20:15:23.179Z,41.09
2022-08-05T20:18:10.769Z,41.13
2022-08-05T20:20:56.708Z,41.37
2022-08-05T20:24:24.108Z,41.93
2022-08-05T20:26:51.473Z,41.81
2022-08-05T20:29:26.653Z,42.16
2022-08-05T20:31:58.254Z,42.56
2022-08-05T20:34:26.695Z,42.46
2022-08-05T20:36:53.717Z,42.41
2022-08-05T20:39:22.592Z,42.52
2022-08-05T20:41:49.677Z,42.83
2022-08-05T20:44:29.389Z,42.87
2022-08-05T20:46:59.661Z,43.10
2022-08-05T20:49:26.809Z,43.19
2022-08-05T20:51:54.895Z,43.47
2022-08-05T20:54:43.648Z,43.99
2022-08-05T20:57:14.609Z,43.89
2022-08-05T21:00:21.390Z,44.63
2022-08-05T21:02:39.697Z,45.29
2022-08-05T21:05:18.668Z,44.50
2022-08-05T21:07:52.876Z,44.62
2022-08-05T21:10:21.625Z,43.72
2022-08-05T21:12:55.566Z,44.07
2022-08-05T21:15:33.911Z,43.57
2022-08-05T21:18:02.505Z,43.29
2022-08-05T21:20:33.567Z,43.49
2022-08-05T21:23:01.297Z,43.01
2022-08-05T21:25:33.822Z,43.29
2022-08-05T21:28:03.614Z,43.43
2022-08-05T21:30:31.599Z,43.91
2022-08-05T21:32:58.914Z,43.91
2022-08-05T21:35:29.960Z,44.14
2022-08-05T21:38:10.664Z,44.18
2022-08-05T21:43:24.059Z,43.68
2022-08-05T21:45:56.344Z,43.96
2022-08-05T21:48:26.593Z,44.21
2022-08-05T21:50:56.087Z,44.05
2022-08-05T21:53:27.474Z,44.09
2022-08-05T21:56:06.115Z,43.91
2022-08-05T21:58:48.219Z,44.35
2022-08-05T22:01:28.450Z,44.45
2022-08-05T22:04:04.974Z,44.23
2022-08-05T22:06:34.765Z,44.17
2022-08-05T22:09:20.783Z,44.17
2022-08-05T22:11:48.819Z,44.88
2022-08-05T22:14:34.553Z,44.47
2022-08-05T22:17:07.054Z,45.00
2022-08-05T22:20:01.418Z,45.14
2022-08-05T22:22:26.841Z,45.17
2022-08-05T22:25:18.080Z,45.13
2022-08-05T22:28:08.640Z,45.39
2022-08-05T22:30:53.545Z,45.11
2022-08-05T22:33:57.169Z,45.58
2022-08-05T22:36:14.569Z,45.94
2022-08-05T22:38:47.921Z,46.10
2022-08-05T22:42:04.807Z,46.51
2022-08-05T22:44:04.315Z,46.47
2022-08-05T22:46:31.537Z,46.99
2022-08-05T22:48:59.610Z,46.42
2022-08-05T22:52:06.527Z,46.49
2022-08-05T22:54:14.628Z,46.85
2022-08-05T22:56:41.719Z,46.79
2022-08-05T22:59:45.781Z,46.50
2022-08-05T23:02:06.214Z,48.32
2022-08-05T23:04:35.684Z,47.72
2022-08-05T23:07:03.042Z,48.34
2022-08-05T23:09:53.346Z,47.93
2022-08-05T23:12:18.165Z,47.01
2022-08-05T23:14:45.243Z,47.37
2022-08-05T23:17:35.019Z,47.17
2022-08-05T23:20:17.717Z,47.73
2022-08-05T23:22:48.398Z,47.87
2022-08-05T23:25:52.436Z,47.63
2022-08-05T23:28:06.981Z,48.47
2022-08-05T23:30:40.258Z,48.21
2022-08-05T23:33:16.418Z,48.73
2022-08-05T23:35:56.244Z,48.64
2022-08-05T23:38:24.482Z,49.21
2022-08-05T23:40:52.697Z,49.89
2022-08-05T23:43:25.229Z,50.03
2022-08-05T23:46:21.408Z,50.66
2022-08-05T23:49:00.678Z,50.03
2022-08-05T23:51:53.437Z,51.02
2022-08-05T23:54:25.112Z,50.86
2022-08-05T23:57:03.127Z,51.49
